Indian Creek Village, Florida
Current Conditions -  °F | °C
As of 9:11 AM on Wednesday 26 Nov 2014 (Local Time) from KOPF Reporting Station
Light Rain Light Rain  
Wind Chill: 26°   Ceiling: 3900
Heat Index: 27°   Visibility: 10mi
Dew Point: 23°   Wind: 14mph
Humidity: 87%   Direction: 270°W
Pressure: 30.04"   Gusts: NA
Location:  25.882°N, 80.1292°W
Report Text: KOPF 261411Z 27012KT 10SM -RA SCT019 BKN039 OVC050 26/23 A3004 RMK AO2 LTG DSNT N RAB10 P0000 T02560233 $
Loading
Personal Weather Stations






























Interactive Weather Map New forecast layout! Learn more

10-Day Weather Forecast

Advertisements
Track Severe Weather on mobile